sensor_id;sensor_type;location;lat;lon;timestamp;temperature;humidity
3912;DHT22;1971;51.778;10.330;2022-12-07T00:02:27;0.60;99.90
3912;DHT22;1971;51.778;10.330;2022-12-07T00:04:57;0.40;99.90
3912;DHT22;1971;51.778;10.330;2022-12-07T00:07:27;0.50;99.90
3912;DHT22;1971;51.778;10.330;2022-12-07T00:10:00;0.50;99.90
3912;DHT22;1971;51.778;10.330;2022-12-07T00:12:30;0.20;99.90
3912;DHT22;1971;51.778;10.330;2022-12-07T00:15:01;0.30;99.90
3912;DHT22;1971;51.778;10.330;2022-12-07T00:17:31;0.60;99.90
3912;DHT22;1971;51.778;10.330;2022-12-07T00:20:01;0.30;99.90
3912;DHT22;1971;51.778;10.330;2022-12-07T00:22:32;0.50;99.90
3912;DHT22;1971;51.778;10.330;2022-12-07T00:25:05;0.30;99.90
3912;DHT22;1971;51.778;10.330;2022-12-07T00:27:35;0.60;99.90
3912;DHT22;1971;51.778;10.330;2022-12-07T00:30:07;0.60;99.90
3912;DHT22;1971;51.778;10.330;2022-12-07T00:32:37;0.30;99.90
3912;DHT22;1971;51.778;10.330;2022-12-07T00:35:08;0.30;99.90
3912;DHT22;1971;51.778;10.330;2022-12-07T00:37:38;0.40;99.90
3912;DHT22;1971;51.778;10.330;2022-12-07T00:40:12;0.60;99.90
3912;DHT22;1971;51.778;10.330;2022-12-07T00:42:42;0.30;99.90
3912;DHT22;1971;51.778;10.330;2022-12-07T00:45:12;0.30;99.90
3912;DHT22;1971;51.778;10.330;2022-12-07T00:47:42;0.40;99.90
3912;DHT22;1971;51.778;10.330;2022-12-07T00:50:12;0.30;99.90
3912;DHT22;1971;51.778;10.330;2022-12-07T00:52:42;0.50;99.90
3912;DHT22;1971;51.778;10.330;2022-12-07T00:55:15;0.40;99.90
3912;DHT22;1971;51.778;10.330;2022-12-07T00:57:46;0.60;99.90
3912;DHT22;1971;51.778;10.330;2022-12-07T01:00:16;0.60;99.90
3912;DHT22;1971;51.778;10.330;2022-12-07T01:02:46;0.40;99.90
3912;DHT22;1971;51.778;10.330;2022-12-07T01:05:16;0.40;99.90
3912;DHT22;1971;51.778;10.330;2022-12-07T01:07:46;0.30;99.90
3912;DHT22;1971;51.778;10.330;2022-12-07T01:10:19;0.30;99.90
3912;DHT22;1971;51.778;10.330;2022-12-07T01:12:50;0.60;99.90
3912;DHT22;1971;51.778;10.330;2022-12-07T01:15:20;0.40;99.90
3912;DHT22;1971;51.778;10.330;2022-12-07T01:17:51;0.50;99.90
3912;DHT22;1971;51.778;10.330;2022-12-07T01:20:22;0.60;99.90
3912;DHT22;1971;51.778;10.330;2022-12-07T01:22:52;0.30;99.90
3912;DHT22;1971;51.778;10.330;2022-12-07T01:25:25;0.50;99.90
3912;DHT22;1971;51.778;10.330;2022-12-07T01:27:55;0.40;99.90
3912;DHT22;1971;51.778;10.330;2022-12-07T01:30:26;0.20;99.90
3912;DHT22;1971;51.778;10.330;2022-12-07T01:32:57;0.30;99.90
3912;DHT22;1971;51.778;10.330;2022-12-07T01:35:27;0.60;99.90
3912;DHT22;1971;51.778;10.330;2022-12-07T01:37:58;0.30;99.90
3912;DHT22;1971;51.778;10.330;2022-12-07T01:40:31;0.60;99.90
3912;DHT22;1971;51.778;10.330;2022-12-07T01:43:01;0.40;99.90
3912;DHT22;1971;51.778;10.330;2022-12-07T01:45:38;0.40;99.90
3912;DHT22;1971;51.778;10.330;2022-12-07T01:48:11;0.60;99.90
3912;DHT22;1971;51.778;10.330;2022-12-07T01:50:43;0.30;99.90
3912;DHT22;1971;51.778;10.330;2022-12-07T01:53:16;0.50;99.90
3912;DHT22;1971;51.778;10.330;2022-12-07T01:55:52;0.60;99.90
3912;DHT22;1971;51.778;10.330;2022-12-07T01:58:23;0.70;99.90
3912;DHT22;1971;51.778;10.330;2022-12-07T02:00:54;0.60;99.90
3912;DHT22;1971;51.778;10.330;2022-12-07T02:03:29;0.50;99.90
3912;DHT22;1971;51.778;10.330;2022-12-07T02:06:00;0.60;99.90
3912;DHT22;1971;51.778;10.330;2022-12-07T02:08:30;0.50;99.90
3912;DHT22;1971;51.778;10.330;2022-12-07T02:11:05;0.50;99.90
3912;DHT22;1971;51.778;10.330;2022-12-07T02:13:39;0.30;99.90
3912;DHT22;1971;51.778;10.330;2022-12-07T02:16:18;0.50;99.90
3912;DHT22;1971;51.778;10.330;2022-12-07T02:19:06;0.50;99.90
3912;DHT22;1971;51.778;10.330;2022-12-07T02:21:46;0.60;99.90
3912;DHT22;1971;51.778;10.330;2022-12-07T02:24:39;0.30;99.90
3912;DHT22;1971;51.778;10.330;2022-12-07T02:27:37;0.50;99.90
3912;DHT22;1971;51.778;10.330;2022-12-07T02:30:12;0.40;99.90
3912;DHT22;1971;51.778;10.330;2022-12-07T02:32:48;0.30;99.90
3912;DHT22;1971;51.778;10.330;2022-12-07T02:35:25;0.70;99.90
3912;DHT22;1971;51.778;10.330;2022-12-07T02:38:02;0.70;99.90
3912;DHT22;1971;51.778;10.330;2022-12-07T02:40:37;0.60;99.90
3912;DHT22;1971;51.778;10.330;2022-12-07T02:43:12;0.30;99.90
3912;DHT22;1971;51.778;10.330;2022-12-07T02:45:48;0.60;99.90
3912;DHT22;1971;51.778;10.330;2022-12-07T02:48:20;0.60;99.90
3912;DHT22;1971;51.778;10.330;2022-12-07T02:50:53;0.70;99.90
3912;DHT22;1971;51.778;10.330;2022-12-07T02:53:32;0.50;99.90
3912;DHT22;1971;51.778;10.330;2022-12-07T02:56:07;0.40;99.90
3912;DHT22;1971;51.778;10.330;2022-12-07T02:58:52;0.70;99.90
3912;DHT22;1971;51.778;10.330;2022-12-07T03:01:33;0.70;99.90
3912;DHT22;1971;51.778;10.330;2022-12-07T03:04:15;0.60;99.90
3912;DHT22;1971;51.778;10.330;2022-12-07T03:06:52;0.40;99.90
3912;DHT22;1971;51.778;10.330;2022-12-07T03:09:31;0.70;99.90
3912;DHT22;1971;51.778;10.330;2022-12-07T03:12:09;0.60;99.90
3912;DHT22;1971;51.778;10.330;2022-12-07T03:14:45;0.80;99.90
3912;DHT22;1971;51.778;10.330;2022-12-07T03:17:21;0.30;99.90
3912;DHT22;1971;51.778;10.330;2022-12-07T03:19:58;0.50;99.90
3912;DHT22;1971;51.778;10.330;2022-12-07T03:22:31;0.40;99.90
3912;DHT22;1971;51.778;10.330;2022-12-07T03:25:06;0.70;99.90
3912;DHT22;1971;51.778;10.330;2022-12-07T03:27:42;0.80;99.90
3912;DHT22;1971;51.778;10.330;2022-12-07T03:30:18;0.40;99.90
3912;DHT22;1971;51.778;10.330;2022-12-07T03:32:55;0.70;99.90
3912;DHT22;1971;51.778;10.330;2022-12-07T03:35:31;0.60;99.90
3912;DHT22;1971;51.778;10.330;2022-12-07T03:38:13;0.50;99.90
3912;DHT22;1971;51.778;10.330;2022-12-07T03:40:48;0.60;99.90
3912;DHT22;1971;51.778;10.330;2022-12-07T03:43:21;0.50;99.90
3912;DHT22;1971;51.778;10.330;2022-12-07T03:45:59;0.50;99.90
3912;DHT22;1971;51.778;10.330;2022-12-07T03:48:38;0.80;99.90
3912;DHT22;1971;51.778;10.330;2022-12-07T03:51:15;0.60;99.90
3912;DHT22;1971;51.778;10.330;2022-12-07T03:53:52;0.60;99.90
3912;DHT22;1971;51.778;10.330;2022-12-07T03:56:25;0.90;99.90
3912;DHT22;1971;51.778;10.330;2022-12-07T03:58:56;0.80;99.90
3912;DHT22;1971;51.778;10.330;2022-12-07T04:01:26;1.00;99.90
3912;DHT22;1971;51.778;10.330;2022-12-07T04:04:00;0.90;99.90
3912;DHT22;1971;51.778;10.330;2022-12-07T04:06:30;0.90;99.90
3912;DHT22;1971;51.778;10.330;2022-12-07T04:09:01;0.90;99.90
3912;DHT22;1971;51.778;10.330;2022-12-07T04:11:31;0.80;99.90
3912;DHT22;1971;51.778;10.330;2022-12-07T04:14:01;1.20;99.90
3912;DHT22;1971;51.778;10.330;2022-12-07T04:16:44;1.10;99.90
3912;DHT22;1971;51.778;10.330;2022-12-07T04:19:18;0.90;99.90
3912;DHT22;1971;51.778;10.330;2022-12-07T04:21:49;1.00;99.90
3912;DHT22;1971;51.778;10.330;2022-12-07T04:24:20;1.10;99.90
3912;DHT22;1971;51.778;10.330;2022-12-07T04:26:50;0.80;99.90
3912;DHT22;1971;51.778;10.330;2022-12-07T04:29:20;1.10;99.90
3912;DHT22;1971;51.778;10.330;2022-12-07T04:31:51;1.00;99.90
3912;DHT22;1971;51.778;10.330;2022-12-07T04:34:25;0.80;99.90
3912;DHT22;1971;51.778;10.330;2022-12-07T04:36:55;1.10;99.90
3912;DHT22;1971;51.778;10.330;2022-12-07T04:39:28;0.90;99.90
3912;DHT22;1971;51.778;10.330;2022-12-07T04:41:59;0.80;99.90
3912;DHT22;1971;51.778;10.330;2022-12-07T04:44:31;0.80;99.90
3912;DHT22;1971;51.778;10.330;2022-12-07T04:47:01;1.00;99.90
3912;DHT22;1971;51.778;10.330;2022-12-07T04:49:34;0.90;99.90
3912;DHT22;1971;51.778;10.330;2022-12-07T04:52:05;1.00;99.90
3912;DHT22;1971;51.778;10.330;2022-12-07T04:54:35;1.10;99.90
3912;DHT22;1971;51.778;10.330;2022-12-07T04:57:05;0.90;99.90
3912;DHT22;1971;51.778;10.330;2022-12-07T04:59:35;1.20;99.90
3912;DHT22;1971;51.778;10.330;2022-12-07T05:02:11;1.10;99.90
3912;DHT22;1971;51.778;10.330;2022-12-07T05:04:45;0.90;99.90
3912;DHT22;1971;51.778;10.330;2022-12-07T05:07:15;1.00;99.90
3912;DHT22;1971;51.778;10.330;2022-12-07T05:09:45;1.00;99.90
3912;DHT22;1971;51.778;10.330;2022-12-07T05:12:16;1.00;99.90
3912;DHT22;1971;51.778;10.330;2022-12-07T05:14:46;1.10;99.90
3912;DHT22;1971;51.778;10.330;2022-12-07T05:17:16;1.00;99.90
3912;DHT22;1971;51.778;10.330;2022-12-07T05:19:49;1.10;99.90
3912;DHT22;1971;51.778;10.330;2022-12-07T05:22:19;0.90;99.90
3912;DHT22;1971;51.778;10.330;2022-12-07T05:24:50;1.10;99.90
3912;DHT22;1971;51.778;10.330;2022-12-07T05:27:20;0.90;99.90
3912;DHT22;1971;51.778;10.330;2022-12-07T05:29:50;1.10;99.90
3912;DHT22;1971;51.778;10.330;2022-12-07T05:32:21;1.00;99.90
3912;DHT22;1971;51.778;10.330;2022-12-07T05:34:54;1.00;99.90
3912;DHT22;1971;51.778;10.330;2022-12-07T05:37:24;1.00;99.90
3912;DHT22;1971;51.778;10.330;2022-12-07T05:39:54;1.00;99.90
3912;DHT22;1971;51.778;10.330;2022-12-07T05:42:27;1.10;99.90
3912;DHT22;1971;51.778;10.330;2022-12-07T05:44:57;1.00;99.90
3912;DHT22;1971;51.778;10.330;2022-12-07T05:47:28;1.00;99.90
3912;DHT22;1971;51.778;10.330;2022-12-07T05:50:01;1.10;99.90
3912;DHT22;1971;51.778;10.330;2022-12-07T05:52:32;1.00;99.90
3912;DHT22;1971;51.778;10.330;2022-12-07T05:55:02;1.20;99.90
3912;DHT22;1971;51.778;10.330;2022-12-07T05:57:34;1.00;99.90
3912;DHT22;1971;51.778;10.330;2022-12-07T06:00:05;0.90;99.90
3912;DHT22;1971;51.778;10.330;2022-12-07T06:02:38;1.10;99.90
3912;DHT22;1971;51.778;10.330;2022-12-07T06:05:11;1.00;99.90
3912;DHT22;1971;51.778;10.330;2022-12-07T06:07:41;0.90;99.90
3912;DHT22;1971;51.778;10.330;2022-12-07T06:10:11;1.20;99.90
3912;DHT22;1971;51.778;10.330;2022-12-07T06:12:42;1.00;99.90
3912;DHT22;1971;51.778;10.330;2022-12-07T06:15:10;1.00;99.90
3912;DHT22;1971;51.778;10.330;2022-12-07T06:17:41;1.10;99.90
3912;DHT22;1971;51.778;10.330;2022-12-07T06:20:14;1.00;99.90
3912;DHT22;1971;51.778;10.330;2022-12-07T06:22:44;1.10;99.90
3912;DHT22;1971;51.778;10.330;2022-12-07T06:25:15;1.00;99.90
3912;DHT22;1971;51.778;10.330;2022-12-07T06:27:45;1.20;99.90
3912;DHT22;1971;51.778;10.330;2022-12-07T06:30:16;1.00;99.90
3912;DHT22;1971;51.778;10.330;2022-12-07T06:32:46;1.00;99.90
3912;DHT22;1971;51.778;10.330;2022-12-07T06:35:19;1.00;99.90
3912;DHT22;1971;51.778;10.330;2022-12-07T06:37:49;0.90;99.90
3912;DHT22;1971;51.778;10.330;2022-12-07T06:40:19;1.20;99.90
3912;DHT22;1971;51.778;10.330;2022-12-07T06:42:49;0.90;99.90
3912;DHT22;1971;51.778;10.330;2022-12-07T06:45:19;1.30;99.90
3912;DHT22;1971;51.778;10.330;2022-12-07T06:47:49;0.90;99.90
3912;DHT22;1971;51.778;10.330;2022-12-07T06:50:22;1.00;99.90
3912;DHT22;1971;51.778;10.330;2022-12-07T06:52:53;1.10;99.90
3912;DHT22;1971;51.778;10.330;2022-12-07T06:55:23;1.00;99.90
3912;DHT22;1971;51.778;10.330;2022-12-07T06:57:53;1.00;99.90
3912;DHT22;1971;51.778;10.330;2022-12-07T07:00:23;1.00;99.90
3912;DHT22;1971;51.778;10.330;2022-12-07T07:02:53;1.00;99.90
3912;DHT22;1971;51.778;10.330;2022-12-07T07:05:26;1.00;99.90
3912;DHT22;1971;51.778;10.330;2022-12-07T07:07:56;1.20;99.90
3912;DHT22;1971;51.778;10.330;2022-12-07T07:10:46;1.00;99.90
3912;DHT22;1971;51.778;10.330;2022-12-07T07:13:18;1.00;99.90
3912;DHT22;1971;51.778;10.330;2022-12-07T07:15:49;1.00;99.90
3912;DHT22;1971;51.778;10.330;2022-12-07T07:18:19;1.10;99.90
3912;DHT22;1971;51.778;10.330;2022-12-07T07:20:53;0.90;99.90
3912;DHT22;1971;51.778;10.330;2022-12-07T07:23:23;1.00;99.90
3912;DHT22;1971;51.778;10.330;2022-12-07T07:25:54;1.20;99.90
3912;DHT22;1971;51.778;10.330;2022-12-07T07:28:24;1.10;99.90
3912;DHT22;1971;51.778;10.330;2022-12-07T07:30:54;1.00;99.90
3912;DHT22;1971;51.778;10.330;2022-12-07T07:33:25;1.20;99.90
3912;DHT22;1971;51.778;10.330;2022-12-07T07:35:58;1.00;99.90
3912;DHT22;1971;51.778;10.330;2022-12-07T07:38:28;1.20;99.90
3912;DHT22;1971;51.778;10.330;2022-12-07T07:40:59;1.00;99.90
3912;DHT22;1971;51.778;10.330;2022-12-07T07:43:29;1.20;99.90
3912;DHT22;1971;51.778;10.330;2022-12-07T07:45:59;1.10;99.90
3912;DHT22;1971;51.778;10.330;2022-12-07T07:48:30;0.90;99.90
3912;DHT22;1971;51.778;10.330;2022-12-07T07:51:05;1.00;99.90
3912;DHT22;1971;51.778;10.330;2022-12-07T07:53:35;1.20;99.90
3912;DHT22;1971;51.778;10.330;2022-12-07T07:56:06;1.20;99.90
3912;DHT22;1971;51.778;10.330;2022-12-07T07:58:36;0.90;99.90
3912;DHT22;1971;51.778;10.330;2022-12-07T08:01:06;1.10;99.90
3912;DHT22;1971;51.778;10.330;2022-12-07T08:03:36;1.20;99.90
3912;DHT22;1971;51.778;10.330;2022-12-07T08:06:09;1.20;99.90
3912;DHT22;1971;51.778;10.330;2022-12-07T08:08:39;1.00;99.90
3912;DHT22;1971;51.778;10.330;2022-12-07T08:11:10;1.00;99.90
3912;DHT22;1971;51.778;10.330;2022-12-07T08:13:40;1.20;99.90
3912;DHT22;1971;51.778;10.330;2022-12-07T08:16:10;1.10;99.90
3912;DHT22;1971;51.778;10.330;2022-12-07T08:18:42;1.10;99.90
3912;DHT22;1971;51.778;10.330;2022-12-07T08:21:16;1.00;99.90
3912;DHT22;1971;51.778;10.330;2022-12-07T08:23:46;1.20;99.90
3912;DHT22;1971;51.778;10.330;2022-12-07T08:26:16;1.00;99.90
3912;DHT22;1971;51.778;10.330;2022-12-07T08:28:46;1.00;99.90
3912;DHT22;1971;51.778;10.330;2022-12-07T08:31:18;1.20;99.90
3912;DHT22;1971;51.778;10.330;2022-12-07T08:33:49;1.10;99.90
3912;DHT22;1971;51.778;10.330;2022-12-07T08:36:21;0.90;99.90
3912;DHT22;1971;51.778;10.330;2022-12-07T08:38:53;0.90;99.90
3912;DHT22;1971;51.778;10.330;2022-12-07T08:41:43;1.10;99.90
3912;DHT22;1971;51.778;10.330;2022-12-07T08:44:13;0.90;99.90
3912;DHT22;1971;51.778;10.330;2022-12-07T08:46:46;0.90;99.90
3912;DHT22;1971;51.778;10.330;2022-12-07T08:49:20;1.00;99.90
3912;DHT22;1971;51.778;10.330;2022-12-07T08:51:55;1.00;99.90
3912;DHT22;1971;51.778;10.330;2022-12-07T08:54:25;1.00;99.90
3912;DHT22;1971;51.778;10.330;2022-12-07T08:56:56;1.10;99.90
3912;DHT22;1971;51.778;10.330;2022-12-07T08:59:27;1.00;99.90
3912;DHT22;1971;51.778;10.330;2022-12-07T09:01:57;1.20;99.90
3912;DHT22;1971;51.778;10.330;2022-12-07T09:04:27;1.00;99.90
3912;DHT22;1971;51.778;10.330;2022-12-07T09:07:01;1.30;99.90
3912;DHT22;1971;51.778;10.330;2022-12-07T09:09:31;1.10;99.90
3912;DHT22;1971;51.778;10.330;2022-12-07T09:12:02;1.20;99.90
3912;DHT22;1971;51.778;10.330;2022-12-07T09:14:32;1.10;99.90
3912;DHT22;1971;51.778;10.330;2022-12-07T09:17:06;1.00;99.90
3912;DHT22;1971;51.778;10.330;2022-12-07T09:19:37;1.00;99.90
3912;DHT22;1971;51.778;10.330;2022-12-07T09:22:11;1.00;99.90
3912;DHT22;1971;51.778;10.330;2022-12-07T09:24:41;1.00;99.90
3912;DHT22;1971;51.778;10.330;2022-12-07T09:27:12;1.00;99.90
3912;DHT22;1971;51.778;10.330;2022-12-07T09:29:44;1.20;99.90
3912;DHT22;1971;51.778;10.330;2022-12-07T09:32:14;1.00;99.90
3912;DHT22;1971;51.778;10.330;2022-12-07T09:34:45;1.00;99.90
3912;DHT22;1971;51.778;10.330;2022-12-07T09:37:18;1.20;99.90
3912;DHT22;1971;51.778;10.330;2022-12-07T09:39:48;1.00;99.90
3912;DHT22;1971;51.778;10.330;2022-12-07T09:42:27;1.20;99.90
3912;DHT22;1971;51.778;10.330;2022-12-07T09:44:58;1.30;99.90
3912;DHT22;1971;51.778;10.330;2022-12-07T09:47:29;1.30;99.90
3912;DHT22;1971;51.778;10.330;2022-12-07T09:50:05;0.90;99.90
3912;DHT22;1971;51.778;10.330;2022-12-07T09:52:38;1.00;99.90
3912;DHT22;1971;51.778;10.330;2022-12-07T09:55:11;1.10;99.90
3912;DHT22;1971;51.778;10.330;2022-12-07T09:57:43;1.10;99.90
3912;DHT22;1971;51.778;10.330;2022-12-07T10:00:15;0.90;99.90
3912;DHT22;1971;51.778;10.330;2022-12-07T10:02:48;1.10;99.90
3912;DHT22;1971;51.778;10.330;2022-12-07T10:05:22;1.10;99.90
3912;DHT22;1971;51.778;10.330;2022-12-07T10:07:56;1.00;99.90
3912;DHT22;1971;51.778;10.330;2022-12-07T10:10:30;1.10;99.90
3912;DHT22;1971;51.778;10.330;2022-12-07T10:13:06;1.00;99.90
3912;DHT22;1971;51.778;10.330;2022-12-07T10:15:47;1.30;99.90
3912;DHT22;1971;51.778;10.330;2022-12-07T10:18:29;1.20;99.90
3912;DHT22;1971;51.778;10.330;2022-12-07T10:21:05;1.30;99.90
3912;DHT22;1971;51.778;10.330;2022-12-07T10:23:58;0.90;99.90
3912;DHT22;1971;51.778;10.330;2022-12-07T10:26:34;1.10;99.90
3912;DHT22;1971;51.778;10.330;2022-12-07T10:29:14;1.30;99.90
3912;DHT22;1971;51.778;10.330;2022-12-07T10:31:49;1.20;99.90
3912;DHT22;1971;51.778;10.330;2022-12-07T10:34:23;1.00;99.90
3912;DHT22;1971;51.778;10.330;2022-12-07T10:36:54;1.40;99.90
3912;DHT22;1971;51.778;10.330;2022-12-07T10:39:44;1.20;99.90
3912;DHT22;1971;51.778;10.330;2022-12-07T10:42:19;0.80;99.90
3912;DHT22;1971;51.778;10.330;2022-12-07T10:45:06;1.30;99.90
3912;DHT22;1971;51.778;10.330;2022-12-07T10:47:42;1.00;99.90
3912;DHT22;1971;51.778;10.330;2022-12-07T10:50:40;1.00;99.90
3912;DHT22;1971;51.778;10.330;2022-12-07T10:56:47;1.20;99.90
3912;DHT22;1971;51.778;10.330;2022-12-07T10:59:34;1.30;99.90
3912;DHT22;1971;51.778;10.330;2022-12-07T11:02:24;1.00;99.90
3912;DHT22;1971;51.778;10.330;2022-12-07T11:05:05;1.30;99.90
3912;DHT22;1971;51.778;10.330;2022-12-07T11:07:43;1.40;99.90
3912;DHT22;1971;51.778;10.330;2022-12-07T11:10:26;1.10;99.90
3912;DHT22;1971;51.778;10.330;2022-12-07T11:13:14;1.10;99.90
3912;DHT22;1971;51.778;10.330;2022-12-07T11:16:19;1.10;99.90
3912;DHT22;1971;51.778;10.330;2022-12-07T11:19:05;1.20;99.90
3912;DHT22;1971;51.778;10.330;2022-12-07T11:21:42;1.30;99.90
3912;DHT22;1971;51.778;10.330;2022-12-07T11:24:17;1.10;99.90
3912;DHT22;1971;51.778;10.330;2022-12-07T11:27:00;1.20;99.90
3912;DHT22;1971;51.778;10.330;2022-12-07T11:29:46;1.10;99.90
3912;DHT22;1971;51.778;10.330;2022-12-07T11:32:24;1.20;99.90
3912;DHT22;1971;51.778;10.330;2022-12-07T11:35:08;1.30;99.90
3912;DHT22;1971;51.778;10.330;2022-12-07T11:37:38;1.10;99.90
3912;DHT22;1971;51.778;10.330;2022-12-07T11:40:17;1.10;99.90
3912;DHT22;1971;51.778;10.330;2022-12-07T11:42:52;1.20;99.90
3912;DHT22;1971;51.778;10.330;2022-12-07T11:45:27;1.20;96.10
3912;DHT22;1971;51.778;10.330;2022-12-07T11:48:00;1.30;88.60
3912;DHT22;1971;51.778;10.330;2022-12-07T11:50:34;1.10;72.00
3912;DHT22;1971;51.778;10.330;2022-12-07T11:53:11;1.10;68.00
3912;DHT22;1971;51.778;10.330;2022-12-07T11:55:48;0.90;70.40
3912;DHT22;1971;51.778;10.330;2022-12-07T11:58:41;1.20;79.40
3912;DHT22;1971;51.778;10.330;2022-12-07T12:01:31;1.30;83.60
3912;DHT22;1971;51.778;10.330;2022-12-07T12:04:13;1.10;79.70
3912;DHT22;1971;51.778;10.330;2022-12-07T12:06:49;1.00;83.30
3912;DHT22;1971;51.778;10.330;2022-12-07T12:09:23;1.20;90.10
3912;DHT22;1971;51.778;10.330;2022-12-07T12:12:40;1.30;92.80
3912;DHT22;1971;51.778;10.330;2022-12-07T12:15:44;1.30;81.90
3912;DHT22;1971;51.778;10.330;2022-12-07T12:18:34;1.20;74.90
3912;DHT22;1971;51.778;10.330;2022-12-07T12:21:08;1.30;70.70
3912;DHT22;1971;51.778;10.330;2022-12-07T12:23:48;1.40;68.40
3912;DHT22;1971;51.778;10.330;2022-12-07T12:26:21;1.10;53.20
3912;DHT22;1971;51.778;10.330;2022-12-07T12:28:55;1.40;43.10
3912;DHT22;1971;51.778;10.330;2022-12-07T12:31:33;1.30;33.80
3912;DHT22;1971;51.778;10.330;2022-12-07T12:34:34;1.30;27.90
3912;DHT22;1971;51.778;10.330;2022-12-07T12:37:41;1.30;16.20
3912;DHT22;1971;51.778;10.330;2022-12-07T12:40:42;1.20;15.00
3912;DHT22;1971;51.778;10.330;2022-12-07T12:43:45;1.40;13.70
3912;DHT22;1971;51.778;10.330;2022-12-07T12:46:38;1.20;6.30
3912;DHT22;1971;51.778;10.330;2022-12-07T12:49:42;1.30;4.30
3912;DHT22;1971;51.778;10.330;2022-12-07T12:52:47;1.40;1.00
3912;DHT22;1971;51.778;10.330;2022-12-07T12:55:25;1.30;1.00
3912;DHT22;1971;51.778;10.330;2022-12-07T12:58:31;1.30;1.00
3912;DHT22;1971;51.778;10.330;2022-12-07T13:04:03;1.10;1.00
3912;DHT22;1971;51.778;10.330;2022-12-07T13:06:37;1.40;1.00
3912;DHT22;1971;51.778;10.330;2022-12-07T13:09:21;1.10;1.00
3912;DHT22;1971;51.778;10.330;2022-12-07T13:12:00;1.30;1.00
3912;DHT22;1971;51.778;10.330;2022-12-07T13:14:42;1.30;1.00
3912;DHT22;1971;51.778;10.330;2022-12-07T13:20:43;1.10;1.00
3912;DHT22;1971;51.778;10.330;2022-12-07T13:23:18;1.10;1.00
3912;DHT22;1971;51.778;10.330;2022-12-07T13:25:54;1.10;1.00
3912;DHT22;1971;51.778;10.330;2022-12-07T13:28:27;1.10;1.00
3912;DHT22;1971;51.778;10.330;2022-12-07T13:31:23;1.10;1.00
3912;DHT22;1971;51.778;10.330;2022-12-07T13:34:02;1.40;1.00
3912;DHT22;1971;51.778;10.330;2022-12-07T13:36:38;1.10;1.00
3912;DHT22;1971;51.778;10.330;2022-12-07T13:39:18;1.40;1.00
3912;DHT22;1971;51.778;10.330;2022-12-07T13:41:51;1.20;1.00
3912;DHT22;1971;51.778;10.330;2022-12-07T13:44:23;1.10;1.00
3912;DHT22;1971;51.778;10.330;2022-12-07T13:46:59;1.40;1.00
3912;DHT22;1971;51.778;10.330;2022-12-07T13:49:32;1.10;1.00
3912;DHT22;1971;51.778;10.330;2022-12-07T13:52:14;1.10;1.00
3912;DHT22;1971;51.778;10.330;2022-12-07T13:54:47;1.40;1.00
3912;DHT22;1971;51.778;10.330;2022-12-07T13:57:17;1.10;1.00
3912;DHT22;1971;51.778;10.330;2022-12-07T13:59:48;1.10;1.00
3912;DHT22;1971;51.778;10.330;2022-12-07T14:02:22;1.40;1.00
3912;DHT22;1971;51.778;10.330;2022-12-07T14:05:09;1.10;1.00
3912;DHT22;1971;51.778;10.330;2022-12-07T14:07:54;1.40;1.00
3912;DHT22;1971;51.778;10.330;2022-12-07T14:10:27;1.20;1.00
3912;DHT22;1971;51.778;10.330;2022-12-07T14:12:59;1.00;1.00
3912;DHT22;1971;51.778;10.330;2022-12-07T14:15:32;1.10;1.00
3912;DHT22;1971;51.778;10.330;2022-12-07T14:18:03;1.40;1.00
3912;DHT22;1971;51.778;10.330;2022-12-07T14:20:35;1.20;1.00
3912;DHT22;1971;51.778;10.330;2022-12-07T14:23:23;1.10;1.00
3912;DHT22;1971;51.778;10.330;2022-12-07T14:26:03;1.30;1.00
3912;DHT22;1971;51.778;10.330;2022-12-07T14:28:36;1.40;1.00
3912;DHT22;1971;51.778;10.330;2022-12-07T14:31:11;1.20;1.00
3912;DHT22;1971;51.778;10.330;2022-12-07T14:33:51;1.10;1.00
3912;DHT22;1971;51.778;10.330;2022-12-07T14:36:21;0.80;1.00
3912;DHT22;1971;51.778;10.330;2022-12-07T14:38:54;1.40;1.00
3912;DHT22;1971;51.778;10.330;2022-12-07T14:41:27;1.00;1.00
3912;DHT22;1971;51.778;10.330;2022-12-07T14:44:11;1.10;1.00
3912;DHT22;1971;51.778;10.330;2022-12-07T14:46:54;1.20;1.00
3912;DHT22;1971;51.778;10.330;2022-12-07T14:49:44;0.90;1.00
3912;DHT22;1971;51.778;10.330;2022-12-07T14:52:18;0.90;1.00
3912;DHT22;1971;51.778;10.330;2022-12-07T14:55:23;0.90;1.00
3912;DHT22;1971;51.778;10.330;2022-12-07T14:57:53;1.00;1.00
3912;DHT22;1971;51.778;10.330;2022-12-07T15:00:25;0.90;1.00
3912;DHT22;1971;51.778;10.330;2022-12-07T15:02:56;0.80;1.00
3912;DHT22;1971;51.778;10.330;2022-12-07T15:05:26;1.10;1.00
3912;DHT22;1971;51.778;10.330;2022-12-07T15:07:57;0.80;1.00
3912;DHT22;1971;51.778;10.330;2022-12-07T15:10:32;1.00;1.00
3912;DHT22;1971;51.778;10.330;2022-12-07T15:13:06;1.10;1.00
3912;DHT22;1971;51.778;10.330;2022-12-07T15:15:50;1.10;1.00
3912;DHT22;1971;51.778;10.330;2022-12-07T15:18:22;0.90;1.00
3912;DHT22;1971;51.778;10.330;2022-12-07T15:20:52;0.90;1.00
3912;DHT22;1971;51.778;10.330;2022-12-07T15:23:22;0.90;1.00
3912;DHT22;1971;51.778;10.330;2022-12-07T15:25:54;1.30;1.00
3912;DHT22;1971;51.778;10.330;2022-12-07T15:28:24;1.10;1.00
3912;DHT22;1971;51.778;10.330;2022-12-07T15:30:54;1.00;1.00
3912;DHT22;1971;51.778;10.330;2022-12-07T15:33:43;1.00;1.00
3912;DHT22;1971;51.778;10.330;2022-12-07T15:36:19;1.00;1.00
3912;DHT22;1971;51.778;10.330;2022-12-07T15:38:51;1.10;1.00
3912;DHT22;1971;51.778;10.330;2022-12-07T15:41:43;1.00;1.00
3912;DHT22;1971;51.778;10.330;2022-12-07T15:44:14;1.10;1.00
3912;DHT22;1971;51.778;10.330;2022-12-07T15:46:57;1.10;1.00
3912;DHT22;1971;51.778;10.330;2022-12-07T15:49:27;1.20;1.00
3912;DHT22;1971;51.778;10.330;2022-12-07T15:51:58;0.80;1.00
3912;DHT22;1971;51.778;10.330;2022-12-07T15:54:29;0.90;1.00
3912;DHT22;1971;51.778;10.330;2022-12-07T15:57:02;0.90;1.00
3912;DHT22;1971;51.778;10.330;2022-12-07T15:59:33;1.00;1.00
3912;DHT22;1971;51.778;10.330;2022-12-07T16:02:03;1.00;1.00
3912;DHT22;1971;51.778;10.330;2022-12-07T16:04:34;0.90;1.00
3912;DHT22;1971;51.778;10.330;2022-12-07T16:07:04;0.70;1.00
3912;DHT22;1971;51.778;10.330;2022-12-07T16:09:35;0.80;1.00
3912;DHT22;1971;51.778;10.330;2022-12-07T16:12:08;0.90;1.00
3912;DHT22;1971;51.778;10.330;2022-12-07T16:14:39;0.90;1.00
3912;DHT22;1971;51.778;10.330;2022-12-07T16:17:10;1.00;1.00
3912;DHT22;1971;51.778;10.330;2022-12-07T16:19:41;0.90;1.00
3912;DHT22;1971;51.778;10.330;2022-12-07T16:22:11;1.10;1.00
3912;DHT22;1971;51.778;10.330;2022-12-07T16:24:41;1.20;1.00
3912;DHT22;1971;51.778;10.330;2022-12-07T16:27:14;1.20;1.00
3912;DHT22;1971;51.778;10.330;2022-12-07T16:29:45;0.70;1.00
3912;DHT22;1971;51.778;10.330;2022-12-07T16:32:15;1.00;1.00
3912;DHT22;1971;51.778;10.330;2022-12-07T16:34:45;0.90;1.00
3912;DHT22;1971;51.778;10.330;2022-12-07T16:37:16;1.00;1.00
3912;DHT22;1971;51.778;10.330;2022-12-07T16:39:46;0.70;1.00
3912;DHT22;1971;51.778;10.330;2022-12-07T16:42:19;0.70;1.00
3912;DHT22;1971;51.778;10.330;2022-12-07T16:44:49;0.70;1.00
3912;DHT22;1971;51.778;10.330;2022-12-07T16:47:20;0.70;1.70
3912;DHT22;1971;51.778;10.330;2022-12-07T16:49:50;0.60;1.80
3912;DHT22;1971;51.778;10.330;2022-12-07T16:52:21;0.70;3.80
3912;DHT22;1971;51.778;10.330;2022-12-07T16:54:52;0.80;5.40
3912;DHT22;1971;51.778;10.330;2022-12-07T16:57:25;0.90;6.80
3912;DHT22;1971;51.778;10.330;2022-12-07T16:59:56;0.70;6.70
3912;DHT22;1971;51.778;10.330;2022-12-07T17:02:26;0.90;8.10
3912;DHT22;1971;51.778;10.330;2022-12-07T17:04:57;0.70;8.80